Date,TemperatureHighF,TemperatureAvgF,TemperatureLowF,DewpointHighF,DewpointAvgF,DewpointLowF,HumidityHigh,HumidityAvg,HumidityLow,PressureMaxIn,PressureMinIn,WindSpeedMaxMPH,WindSpeedAvgMPH,GustSpeedMaxMPH,PrecipitationSumIn
2013-5-1,81,67,50,60,55,49,98,67,43,30.23,30.07,5,1,11,0.00
2013-5-2,78,66,51,56,51,45,96,63,40,30.24,30.13,6,2,13,0.00
2013-5-3,77,66,54,58,46,35,72,52,24,30.14,30.05,10,2,13,0.00
2013-5-4,71,62,52,48,44,39,81,53,34,30.12,30.06,6,2,11,0.00
2013-5-5,74,60,47,47,41,34,90,53,24,30.12,30.04,5,1,11,0.00
2013-5-6,75,60,43,51,45,41,96,63,38,30.08,29.99,4,1,9,0.00
2013-5-7,77,62,46,55,50,45,95,66,36,30.07,30.00,7,1,9,0.00
2013-5-8,81,64,49,55,50,47,96,65,33,30.04,29.93,4,1,7,0.00
2013-5-9,80,66,49,57,52,47,98,64,33,29.98,29.89,5,0,6,0.00
2013-5-10,66,55,42,62,52,40,97,89,70,29.92,29.74,7,2,11,0.19
2013-5-11,62,48,38,47,42,34,96,82,49,29.93,29.75,9,2,17,0.00
2013-5-12,49,41,32,35,31,26,89,70,50,30.13,29.91,11,2,16,0.00
2013-5-13,55,41,26,33,27,23,94,62,32,30.22,30.13,5,1,11,0.00
2013-5-14,78,58,40,57,42,32,80,56,37,30.14,29.74,5,1,13,0.00
2013-5-15,84,68,54,59,51,46,97,58,33,29.80,29.60,8,2,15,0.00
2013-5-16,83,67,46,52,47,41,96,54,27,30.03,29.79,9,1,13,0.00
2013-5-17,76,62,49,50,44,40,76,54,35,30.15,30.03,5,1,10,0.00
2013-5-18,81,67,55,52,46,42,72,49,32,30.15,30.03,5,1,8,0.00
2013-5-19,86,70,51,64,57,47,94,66,45,30.05,29.87,5,1,9,0.00
2013-5-20,90,75,61,70,64,60,97,71,43,29.92,29.75,9,1,14,0.00
2013-5-21,84,75,68,69,63,59,87,67,45,29.80,29.70,5,1,9,0.00
2013-5-22,80,69,62,66,62,59,93,81,50,29.73,29.61,9,1,15,0.01
2013-5-23,63,52,43,59,50,41,97,94,83,30.18,29.69,7,2,15,0.24
2013-5-24,55,46,39,43,39,35,97,76,52,30.40,30.18,6,2,11,0.00
2013-5-25,65,50,35,43,38,33,97,67,40,30.44,30.32,3,1,9,0.00
2013-5-26,69,55,38,45,38,33,96,59,30,30.38,30.25,7,1,7,0.00
2013-5-27,59,51,41,50,44,37,97,80,50,30.29,30.03,5,1,10,0.37
2013-5-28,73,62,51,71,60,50,98,95,84,30.02,29.81,3,1,10,0.29
2013-5-29,82,73,64,70,66,61,97,80,58,29.99,29.79,5,1,10,0.02
2013-5-30,86,73,61,73,66,59,98,82,57,30.05,29.95,5,1,11,0.12
2013-5-31,80,72,68,71,67,65,95,84,69,30.00,29.83,5,1,11,0.08